Time;durP1;ratioP1;P1;durP2;ratioP2;P2;SDS_P1;SDS_P2;PMS_P1;PMS_P2;Temp;Humidity;BMP_temperature;BMP_pressure;BME280_temperature;BME280_humidity;BME280_pressure;Samples;Min_cycle;Max_cycle;Signal;HPM_P1;HPM_P2
2021/12/15 00:00:17;;;;;;;;;58.25;43.25;;;;;8.86;74.88;102515.66;4990447;28;45409;-60
2021/12/15 00:02:44;;;;;;;;;57.00;40.80;;;;;8.85;75.36;102519.41;4993334;28;45483;-56
2021/12/15 00:05:11;;;;;;;;;60.75;44.75;;;;;8.84;75.34;102521.28;4978334;28;45795;-62
2021/12/15 00:07:37;;;;;;;;;52.60;41.20;;;;;8.75;74.76;102503.06;4994406;28;47756;-62
2021/12/15 00:10:05;;;;;;;;;56.60;43.80;;;;;8.79;75.58;102510.81;4995704;28;45251;-62
2021/12/15 00:12:31;;;;;;;;;57.00;43.20;;;;;8.40;75.47;102440.75;4995874;28;45716;-60
2021/12/15 00:14:56;;;;;;;;;60.00;42.50;;;;;8.80;75.35;102509.78;4995795;28;45458;-61
2021/12/15 00:17:23;;;;;;;;;54.25;39.50;;;;;8.13;74.67;102393.31;4995478;28;45571;-59
2021/12/15 00:19:49;;;;;;;;;50.60;39.40;;;;;8.77;75.13;102501.91;4995763;28;45502;-57
2021/12/15 00:22:14;;;;;;;;;55.00;43.25;;;;;8.80;74.78;102503.44;5010778;28;45434;-61
2021/12/15 00:24:40;;;;;;;;;47.00;39.75;;;;;8.80;75.30;102503.44;4995881;28;45713;-62
2021/12/15 00:27:06;;;;;;;;;44.75;37.50;;;;;8.80;75.22;102501.56;5010497;28;46290;-61
2021/12/15 00:29:32;;;;;;;;;53.50;43.75;;;;;8.58;75.53;102463.72;4994395;28;45332;-59
2021/12/15 00:31:58;;;;;;;;;55.00;38.75;;;;;8.84;74.98;102501.25;4994363;28;45410;-61
2021/12/15 00:34:23;;;;;;;;;52.00;41.20;;;;;8.64;75.03;102465.84;4995586;28;45575;-55
2021/12/15 00:36:49;;;;;;;;;45.00;36.50;;;;;8.87;74.96;102500.94;4994215;28;46591;-58
2021/12/15 00:39:20;;;;;;;;;56.00;41.50;;;;;8.89;75.09;102501.63;4995070;28;45268;-61
2021/12/15 00:41:46;;;;;;;;;50.40;39.00;;;;;8.73;74.91;102475.84;4993981;28;45376;-60
2021/12/15 00:44:11;;;;;;;;;56.00;42.25;;;;;8.91;74.71;102495.00;4994462;28;45494;-61
2021/12/15 00:46:37;;;;;;;;;52.50;40.25;;;;;8.76;74.55;102469.19;4995041;28;46908;-62
2021/12/15 00:49:03;;;;;;;;;49.50;42.25;;;;;8.89;74.43;102501.63;4995430;28;45407;-60
2021/12/15 00:51:29;;;;;;;;;54.80;41.00;;;;;8.65;74.65;102457.47;4994159;28;45398;-58
2021/12/15 00:53:54;;;;;;;;;56.25;40.25;;;;;8.91;75.24;102510.56;4994448;28;45301;-58
2021/12/15 00:56:20;;;;;;;;;53.75;40.00;;;;;8.85;74.97;102489.31;4995039;28;46414;-60
2021/12/15 00:58:45;;;;;;;;;50.00;41.75;;;;;8.87;74.42;102500.94;4995166;28;45365;-56
2021/12/15 01:01:11;;;;;;;;;52.25;42.25;;;;;8.82;75.10;102496.78;5008592;28;45574;-61
2021/12/15 01:03:37;;;;;;;;;58.75;43.00;;;;;8.82;74.94;102499.53;4993931;28;45388;-56
2021/12/15 01:06:07;;;;;;;;;47.20;39.00;;;;;8.81;75.41;102500.56;4995400;28;45981;-60
2021/12/15 01:08:33;;;;;;;;;48.60;39.60;;;;;8.80;75.22;102500.69;4994944;28;45322;-61
2021/12/15 01:11:20;;;;;;;;;30.00;22.80;;;;;8.75;74.81;102481.16;4961808;28;45720;-57
2021/12/15 01:22:03;;;;;;;;;49.40;36.00;;;;;8.58;75.05;102455.53;4995235;28;45217;-61
2021/12/15 01:24:29;;;;;;;;;46.50;40.00;;;;;8.83;74.70;102503.13;4995378;28;45374;-56
2021/12/15 01:26:55;;;;;;;;;40.50;36.75;;;;;8.85;74.77;102497.53;4994816;28;45390;-59
2021/12/15 01:29:20;;;;;;;;;50.25;39.50;;;;;8.85;74.14;102497.53;4995196;28;45367;-61
2021/12/15 01:31:46;;;;;;;;;50.00;39.00;;;;;8.82;74.53;102499.53;4961222;28;45325;-61
2021/12/15 01:34:11;;;;;;;;;42.50;37.00;;;;;8.86;73.91;102493.75;4985627;28;45347;-61
2021/12/15 01:36:37;;;;;;;;;44.00;37.75;;;;;8.81;74.44;102489.59;4996877;28;45553;-62
2021/12/15 01:39:03;;;;;;;;;44.50;36.00;;;;;8.71;74.38;102480.63;4996726;28;46146;-56
2021/12/15 01:41:28;;;;;;;;;41.20;35.20;;;;;8.76;74.56;102481.00;4964020;28;45533;-60
2021/12/15 01:49:42;;;;;;;;;42.60;35.60;;;;;8.85;74.49;102492.03;5014343;28;45542;-54
2021/12/15 01:52:20;;;;;;;;;41.80;36.00;;;;;8.81;74.00;102492.34;5014386;28;45391;-60
2021/12/15 01:54:48;;;;;;;;;43.60;36.20;;;;;8.81;74.28;102491.50;5015012;28;45256;-60
2021/12/15 01:57:14;;;;;;;;;42.20;38.00;;;;;8.80;74.14;102492.50;5014445;28;46136;-56
2021/12/15 01:59:40;;;;;;;;;39.00;33.60;;;;;8.85;73.95;102503.00;5014116;28;45417;-59
2021/12/15 02:02:06;;;;;;;;;47.50;40.00;;;;;8.85;74.14;102492.88;5016133;28;45461;-54
2021/12/15 02:04:32;;;;;;;;;41.75;36.75;;;;;8.91;73.96;102505.94;5017917;28;45552;-61
2021/12/15 02:06:58;;;;;;;;;46.75;38.50;;;;;8.88;73.83;102500.81;4999749;28;45391;-61
2021/12/15 02:12:24;;;;;;;;;38.60;31.60;;;;;8.92;74.05;102510.41;5010950;28;45426;-55
2021/12/15 02:14:50;;;;;;;;;42.40;36.60;;;;;8.85;73.32;102498.34;5000721;28;45462;-62
2021/12/15 02:17:16;;;;;;;;;34.25;34.25;;;;;8.88;73.63;102524.56;5017250;28;46061;-61
2021/12/15 02:19:41;;;;;;;;;39.00;29.75;;;;;8.86;74.17;102518.41;5017203;28;45488;-62
2021/12/15 02:22:07;;;;;;;;;34.25;28.00;;;;;8.92;73.16;102520.50;5017669;28;45313;-63
2021/12/15 02:24:35;;;;;;;;;37.25;30.75;;;;;8.85;73.39;102514.78;4983552;28;45590;-61
2021/12/15 02:27:01;;;;;;;;;41.80;32.60;;;;;8.86;73.74;102516.50;5017573;28;46030;-61
2021/12/15 02:29:31;;;;;;;;;41.20;32.20;;;;;8.91;74.13;102524.28;5032360;28;45508;-62
2021/12/15 02:32:14;;;;;;;;;42.60;36.20;;;;;8.86;73.19;102510.19;5017815;28;45365;-62
2021/12/15 02:37:14;;;;;;;;;41.20;31.40;;;;;8.80;74.04;102497.97;5014253;28;45508;-62
2021/12/15 02:37:39;;;;;;;;;41.60;33.20;;;;;8.85;73.07;102497.53;5016822;28;45550;-57
2021/12/15 02:40:09;;;;;;;;;35.50;31.25;;;;;8.92;73.65;102512.28;5017225;28;45379;-57
2021/12/15 02:42:37;;;;;;;;;40.80;35.80;;;;;8.92;73.75;102515.88;4991687;28;45321;-63
2021/12/15 02:45:04;;;;;;;;;43.60;37.80;;;;;8.94;73.90;102515.72;5016163;28;45378;-62
2021/12/15 02:47:30;;;;;;;;;45.40;36.80;;;;;8.89;73.12;102512.59;4998254;28;47145;-56
2021/12/15 02:49:56;;;;;;;;;44.00;38.75;;;;;8.92;74.21;102510.41;5017336;28;45432;-61
2021/12/15 02:52:22;;;;;;;;;43.60;36.80;;;;;8.97;73.81;102522.78;4998963;28;45457;-63
2021/12/15 02:54:47;;;;;;;;;46.00;37.00;;;;;8.98;73.65;102521.75;4999905;28;45401;-56
2021/12/15 02:57:13;;;;;;;;;41.50;37.00;;;;;8.98;73.52;102513.53;4999021;28;47219;-59
2021/12/15 03:05:06;;;;;;;;;41.60;30.00;;;;;8.95;73.86;102518.31;5016815;28;45359;-63
2021/12/15 03:07:40;;;;;;;;;40.80;33.80;;;;;8.77;72.65;102479.13;5016378;28;45856;-63
2021/12/15 03:15:35;;;;;;;;;35.80;32.20;;;;;8.68;72.78;102468.09;5016505;28;45301;-62
2021/12/15 03:18:18;;;;;;;;;37.00;32.00;;;;;8.69;73.32;102482.63;5016991;28;46087;-62
2021/12/15 03:20:55;;;;;;;;;40.60;33.00;;;;;8.88;73.37;102514.50;4998855;28;45262;-62
2021/12/15 03:23:39;;;;;;;;;43.80;35.60;;;;;8.47;73.49;102434.66;4983072;28;45360;-64
2021/12/15 03:26:06;;;;;;;;;40.20;33.80;;;;;8.81;73.69;102499.72;4999245;28;45389;-61
2021/12/15 03:36:41;;;;;;;;;33.60;31.20;;;;;8.25;73.45;102426.78;5016289;28;45578;-63
2021/12/15 03:39:10;;;;;;;;;40.40;32.40;;;;;8.85;73.07;102519.41;5015932;28;45365;-58
2021/12/15 03:41:36;;;;;;;;;34.80;31.80;;;;;8.86;73.22;102515.66;4997267;28;45373;-63
2021/12/15 03:44:03;;;;;;;;;37.00;34.50;;;;;8.86;72.67;102515.66;4998167;28;45383;-61
2021/12/15 03:46:29;;;;;;;;;39.20;30.80;;;;;8.88;72.39;102524.56;5016339;28;45538;-61
2021/12/15 03:48:54;;;;;;;;;32.00;28.50;;;;;8.81;72.81;102516.13;5015556;28;45327;-62
2021/12/15 03:51:20;;;;;;;;;35.25;27.25;;;;;8.85;72.77;102525.75;5016178;28;45379;-63
2021/12/15 03:53:45;;;;;;;;;34.25;22.50;;;;;8.83;72.33;102519.56;5015913;28;45807;-61
2021/12/15 03:56:14;;;;;;;;;29.25;27.75;;;;;8.39;72.68;102460.09;4998663;28;45438;-62
2021/12/15 03:58:39;;;;;;;;;41.00;33.00;;;;;8.84;72.73;102523.16;4997866;28;47763;-62
2021/12/15 04:01:08;;;;;;;;;39.50;31.00;;;;;8.83;72.15;102522.31;5015729;28;45379;-62
2021/12/15 04:03:37;;;;;;;;;37.00;29.80;;;;;8.82;72.07;102517.84;5016216;28;45410;-62
2021/12/15 04:06:04;;;;;;;;;30.80;28.20;;;;;8.86;72.27;102532.09;5015995;28;45465;-62
2021/12/15 04:08:30;;;;;;;;;36.20;26.80;;;;;8.88;72.20;102530.03;4998119;28;47539;-61
2021/12/15 04:10:56;;;;;;;;;34.50;31.00;;;;;8.87;72.40;102525.59;5015879;28;45318;-58
2021/12/15 04:13:22;;;;;;;;;28.60;25.80;;;;;8.88;72.38;102527.31;5016260;28;45445;-63
2021/12/15 04:15:54;;;;;;;;;32.75;25.50;;;;;8.77;72.25;102510.13;4998257;28;45421;-61
2021/12/15 04:18:20;;;;;;;;;31.40;26.60;;;;;8.90;72.07;102528.88;5015548;28;47470;-62
2021/12/15 04:20:45;;;;;;;;;32.00;27.75;;;;;8.89;72.39;102512.59;5015844;28;45322;-63
2021/12/15 04:23:11;;;;;;;;;36.00;26.25;;;;;8.86;72.30;102504.72;5015793;28;45702;-63
2021/12/15 04:25:38;;;;;;;;;36.00;31.40;;;;;8.72;72.04;102492.41;4998472;28;45861;-54
2021/12/15 04:28:06;;;;;;;;;38.40;28.40;;;;;8.89;73.08;102520.81;4972249;28;46506;-56
2021/12/15 04:30:34;;;;;;;;;30.40;27.60;;;;;8.61;72.18;102471.63;4973671;28;45351;-56
2021/12/15 04:33:07;;;;;;;;;35.00;30.80;;;;;8.88;72.80;102510.88;4962267;28;45408;-60
2021/12/15 04:35:32;;;;;;;;;39.40;29.20;;;;;8.73;71.90;102485.91;4974038;28;45561;-55
2021/12/15 04:37:58;;;;;;;;;27.25;23.25;;;;;8.87;72.22;102517.38;5014290;28;45432;-63
2021/12/15 04:40:25;;;;;;;;;27.50;23.00;;;;;8.88;72.88;102513.63;5015358;28;45283;-58
2021/12/15 04:42:50;;;;;;;;;37.80;29.20;;;;;8.88;72.92;102519.97;5015830;28;45394;-55
2021/12/15 04:45:17;;;;;;;;;32.75;25.00;;;;;8.87;72.21;102520.13;4997860;28;45610;-58
2021/12/15 04:47:43;;;;;;;;;36.20;28.80;;;;;8.88;72.54;102519.97;5014186;28;46024;-63
2021/12/15 04:50:09;;;;;;;;;34.50;26.75;;;;;8.90;72.67;102522.53;5015387;28;45397;-62
2021/12/15 04:52:34;;;;;;;;;30.40;26.40;;;;;8.89;71.81;102531.75;5015499;28;45355;-63
2021/12/15 04:55:00;;;;;;;;;31.50;24.25;;;;;8.90;71.79;102528.88;5015512;28;45440;-64
2021/12/15 04:57:26;;;;;;;;;29.75;23.25;;;;;8.73;71.77;102507.81;5013843;28;46803;-59
2021/12/15 04:59:52;;;;;;;;;30.60;26.00;;;;;8.84;71.37;102529.50;5014884;28;45371;-62
2021/12/15 05:02:18;;;;;;;;;27.00;22.75;;;;;8.90;71.79;102537.09;4997360;28;45893;-62
2021/12/15 05:04:43;;;;;;;;;37.60;30.40;;;;;8.89;72.32;102538.13;4997387;28;45539;-58
2021/12/15 05:07:09;;;;;;;;;29.25;22.75;;;;;8.65;72.34;102489.47;5014861;28;47073;-58
2021/12/15 05:09:36;;;;;;;;;27.00;24.75;;;;;8.70;71.36;102505.41;4997055;28;45376;-60
2021/12/15 05:12:01;;;;;;;;;26.40;21.80;;;;;8.93;71.72;102547.72;5015124;28;45306;-62
2021/12/15 05:14:27;;;;;;;;;31.75;22.25;;;;;8.74;71.17;102513.16;5014637;28;45933;-63
2021/12/15 05:16:53;;;;;;;;;31.75;25.25;;;;;8.88;71.93;102541.00;5014740;28;46708;-63
2021/12/15 05:19:18;;;;;;;;;26.75;21.00;;;;;8.92;71.60;102548.75;4980393;28;45826;-58
2021/12/15 05:21:44;;;;;;;;;35.25;25.50;;;;;8.76;72.05;102527.53;5015089;28;45414;-60
2021/12/15 05:24:23;;;;;;;;;31.00;21.00;;;;;8.82;71.51;102531.53;5014729;28;45347;-63
2021/12/15 05:26:49;;;;;;;;;29.60;25.40;;;;;8.89;71.50;102539.97;4998979;28;46778;-61
2021/12/15 05:29:15;;;;;;;;;37.00;29.40;;;;;8.89;71.44;102543.59;5013192;28;45392;-53
2021/12/15 05:31:40;;;;;;;;;31.00;24.25;;;;;8.84;72.23;102545.94;4997132;28;45376;-62
2021/12/15 05:34:06;;;;;;;;;28.75;23.75;;;;;8.90;72.23;102553.53;4997016;28;45363;-61
2021/12/15 05:36:31;;;;;;;;;32.25;28.25;;;;;8.94;71.09;102556.81;4997068;28;45654;-59
2021/12/15 05:38:57;;;;;;;;;31.00;26.75;;;;;8.82;71.48;102545.22;5000384;28;45385;-56
2021/12/15 05:41:23;;;;;;;;;27.50;27.50;;;;;8.92;71.93;102562.44;5017761;28;45422;-64
2021/12/15 05:43:49;;;;;;;;;27.40;22.60;;;;;8.92;71.54;102567.06;5018528;28;45468;-62
2021/12/15 05:46:14;;;;;;;;;31.25;26.00;;;;;8.91;71.65;102565.34;5017780;28;45575;-64
2021/12/15 05:48:40;;;;;;;;;34.50;24.25;;;;;8.62;71.75;102515.28;5017956;28;45430;-64
2021/12/15 05:51:05;;;;;;;;;31.50;25.00;;;;;8.76;71.40;102540.38;5018296;28;45467;-62
2021/12/15 05:53:31;;;;;;;;;21.00;20.75;;;;;8.86;71.47;102556.72;5017742;28;45727;-56
2021/12/15 05:55:56;;;;;;;;;28.25;23.50;;;;;8.93;72.16;102560.56;5000288;28;45585;-58
2021/12/15 05:58:22;;;;;;;;;43.75;24.75;;;;;8.87;71.60;102562.06;5017812;28;45327;-63
2021/12/15 06:00:48;;;;;;;;;41.25;27.00;;;;;8.92;72.68;102567.06;5017999;28;45364;-58
2021/12/15 06:03:14;;;;;;;;;24.75;20.00;;;;;8.76;71.11;102549.44;5018300;28;45330;-60
2021/12/15 06:05:39;;;;;;;;;30.80;28.00;;;;;8.81;71.41;102563.53;4999693;28;46559;-62
2021/12/15 06:08:05;;;;;;;;;31.00;29.00;;;;;8.92;71.76;102569.81;5000179;28;45322;-63
2021/12/15 06:10:31;;;;;;;;;30.00;26.50;;;;;8.94;71.87;102576.84;5017769;28;45366;-63
2021/12/15 06:12:57;;;;;;;;;33.00;29.40;;;;;8.94;72.12;102578.72;5000471;28;45415;-63
2021/12/15 06:15:24;;;;;;;;;27.80;25.80;;;;;8.93;71.64;102575.09;5017506;28;45804;-57
2021/12/15 06:17:51;;;;;;;;;35.60;26.00;;;;;8.91;71.40;102579.03;5017317;28;45902;-62
2021/12/15 06:20:17;;;;;;;;;33.00;27.60;;;;;8.91;72.24;102590.00;5000035;28;45817;-62
2021/12/15 06:22:45;;;;;;;;;32.75;25.50;;;;;8.92;71.45;102591.72;4970358;28;45909;-59
2021/12/15 06:25:10;;;;;;;;;30.60;29.00;;;;;8.90;71.68;102593.72;4999673;28;47153;-61
2021/12/15 06:27:37;;;;;;;;;33.50;29.25;;;;;8.90;71.55;102591.00;4999776;28;45403;-63
2021/12/15 06:30:02;;;;;;;;;30.60;26.20;;;;;8.85;71.57;102588.72;4999656;28;45416;-63
2021/12/15 06:32:28;;;;;;;;;29.50;26.25;;;;;8.93;72.04;102598.91;5000094;28;45462;-63
2021/12/15 06:34:53;;;;;;;;;28.75;24.50;;;;;8.80;72.22;102580.97;4982979;28;45969;-57
2021/12/15 06:37:19;;;;;;;;;28.75;26.00;;;;;8.89;72.50;102589.28;5017475;28;45401;-61
2021/12/15 06:39:44;;;;;;;;;32.00;24.75;;;;;8.75;71.33;102569.63;5017462;28;45450;-61
2021/12/15 06:42:10;;;;;;;;;32.50;28.25;;;;;8.84;71.25;102580.66;5017539;28;45489;-62
2021/12/15 06:44:36;;;;;;;;;26.25;21.50;;;;;8.94;71.14;102601.50;4999547;28;47539;-57
2021/12/15 07:00:28;;;;;;;;;26.80;24.00;;;;;8.94;71.95;102619.78;5016957;28;45357;-63
2021/12/15 07:02:54;;;;;;;;;32.60;24.00;;;;;8.94;71.53;102628.00;4999265;28;45714;-63
2021/12/15 07:05:20;;;;;;;;;25.80;23.40;;;;;8.93;70.74;102623.56;5016653;28;45398;-58
2021/12/15 07:07:46;;;;;;;;;29.50;23.50;;;;;8.80;71.00;102605.63;5017069;28;45362;-63
2021/12/15 07:10:13;;;;;;;;;26.80;20.40;;;;;8.90;71.63;102621.97;5016751;28;45198;-62
2021/12/15 07:12:39;;;;;;;;;26.80;25.20;;;;;8.92;71.83;102628.16;5017326;28;45334;-61
2021/12/15 07:15:05;;;;;;;;;24.50;21.50;;;;;8.95;71.24;102625.13;5016139;28;45570;-55
2021/12/15 07:17:31;;;;;;;;;26.20;22.80;;;;;8.92;71.59;102619.94;4998727;28;45308;-63
2021/12/15 07:20:07;;;;;;;;;34.00;22.75;;;;;8.97;70.93;102635.94;5016797;28;45864;-64
2021/12/15 07:24:59;;;;;;;;;28.60;22.60;;;;;8.96;71.51;102636.94;4998752;28;45384;-61
2021/12/15 07:27:25;;;;;;;;;25.80;22.60;;;;;8.96;71.22;102642.41;5016457;28;45412;-63
2021/12/15 07:29:51;;;;;;;;;25.50;21.25;;;;;8.97;71.91;102646.00;4998468;28;45750;-62
2021/12/15 07:32:17;;;;;;;;;26.00;22.20;;;;;8.79;71.22;102611.25;4998793;28;45558;-62
2021/12/15 07:34:42;;;;;;;;;24.75;20.25;;;;;8.96;71.67;102642.41;4998377;28;46371;-65
2021/12/15 07:37:08;;;;;;;;;31.50;24.25;;;;;8.99;71.47;102653.06;5016481;28;45692;-59
2021/12/15 07:39:35;;;;;;;;;24.00;20.50;;;;;8.89;71.27;102642.19;4998540;28;45532;-60
2021/12/15 07:42:11;;;;;;;;;28.80;26.00;;;;;8.99;71.56;102652.19;5016542;28;45850;-61
2021/12/15 07:44:36;;;;;;;;;24.80;19.80;;;;;8.76;71.82;102615.16;5016409;28;46205;-61
2021/12/15 07:47:02;;;;;;;;;22.50;18.00;;;;;8.82;71.10;102635.59;5016088;28;45319;-62
2021/12/15 07:49:28;;;;;;;;;24.40;23.60;;;;;9.00;70.70;102663.00;5016039;28;45359;-62
2021/12/15 07:52:00;;;;;;;;;26.25;22.00;;;;;9.02;71.59;102668.34;4982380;28;45250;-60
2021/12/15 07:54:29;;;;;;;;;23.20;20.00;;;;;8.90;71.88;102643.03;4998540;28;46707;-62
2021/12/15 07:56:55;;;;;;;;;28.80;22.40;;;;;9.08;71.71;102674.03;4998683;28;45361;-62
2021/12/15 07:59:21;;;;;;;;;20.75;16.75;;;;;9.04;70.71;102669.91;4997976;28;45304;-60
2021/12/15 08:01:46;;;;;;;;;25.75;20.50;;;;;9.00;71.39;102660.25;5016092;28;45411;-61
2021/12/15 08:04:12;;;;;;;;;23.25;18.50;;;;;9.06;71.62;102670.59;5015801;28;46293;-62
2021/12/15 08:06:37;;;;;;;;;19.75;19.75;;;;;8.89;71.43;102638.56;5015570;28;45345;-62
2021/12/15 08:09:04;;;;;;;;;21.75;17.75;;;;;9.13;71.24;102672.72;5016087;28;45427;-61
2021/12/15 08:11:30;;;;;;;;;18.60;15.60;;;;;9.16;71.43;102673.28;4942848;28;45694;-64
2021/12/15 08:13:57;;;;;;;;;17.75;17.50;;;;;8.95;70.74;102646.16;5014367;28;47762;-63
2021/12/15 08:16:23;;;;;;;;;30.80;23.80;;;;;9.19;71.18;102667.47;4997908;28;45356;-64
2021/12/15 08:18:49;;;;;;;;;25.00;19.20;;;;;9.14;71.57;102680.78;5014390;28;45259;-63
2021/12/15 08:21:14;;;;;;;;;21.75;19.50;;;;;9.20;71.41;102682.91;5015881;28;45473;-60
2021/12/15 08:23:40;;;;;;;;;21.75;18.00;;;;;9.25;71.28;102687.06;5013854;28;45391;-59
2021/12/15 08:26:05;;;;;;;;;22.00;17.75;;;;;9.28;71.61;102678.53;5013833;28;45420;-62
2021/12/15 08:28:31;;;;;;;;;23.75;21.00;;;;;9.32;71.16;102691.75;5015729;28;45405;-62
2021/12/15 08:30:59;;;;;;;;;22.40;17.60;;;;;9.34;71.48;102683.41;5015605;28;45406;-57
2021/12/15 08:33:25;;;;;;;;;18.00;17.00;;;;;9.31;70.99;102668.13;5015027;28;47573;-60
2021/12/15 08:35:53;;;;;;;;;27.25;23.25;;;;;9.34;71.35;102684.25;4997100;28;45409;-60
2021/12/15 08:38:21;;;;;;;;;18.80;16.80;;;;;9.35;70.92;102677.75;4997861;28;45422;-55
2021/12/15 08:40:47;;;;;;;;;15.20;14.40;;;;;9.39;71.16;102682.91;5015518;28;45503;-60
2021/12/15 08:43:14;;;;;;;;;22.80;17.00;;;;;9.40;70.80;102692.88;4997705;28;46702;-58
2021/12/15 08:45:41;;;;;;;;;17.60;14.00;;;;;9.41;71.35;102684.50;4997579;28;45450;-62
2021/12/15 08:48:10;;;;;;;;;18.80;15.20;;;;;9.43;70.82;102685.19;5016061;28;45374;-66
2021/12/15 08:50:37;;;;;;;;;16.20;16.20;;;;;9.41;71.21;102683.63;4998351;28;45300;-61
2021/12/15 08:53:05;;;;;;;;;19.00;15.00;;;;;9.45;72.23;102685.03;4996903;28;45598;-60
2021/12/15 08:55:30;;;;;;;;;18.00;17.80;;;;;9.27;71.41;102647.53;4997192;28;45450;-59
2021/12/15 08:57:59;;;;;;;;;16.50;12.00;;;;;9.49;72.00;102686.44;4973469;28;45857;-61
2021/12/15 09:00:27;;;;;;;;;15.80;13.20;;;;;9.45;71.92;102676.81;4974876;28;45587;-64
2021/12/15 09:02:54;;;;;;;;;18.20;15.20;;;;;9.20;70.36;102632.72;4973398;28;45552;-60
2021/12/15 09:05:21;;;;;;;;;14.40;11.40;;;;;9.56;72.03;102684.78;4982470;28;45458;-56
2021/12/15 09:07:51;;;;;;;;;16.20;13.80;;;;;9.58;71.19;102688.25;5009548;28;45475;-61
2021/12/15 09:10:18;;;;;;;;;16.80;12.80;;;;;9.40;70.48;102654.50;4990463;28;45399;-57
2021/12/15 09:12:43;;;;;;;;;21.60;14.20;;;;;9.39;70.51;102659.09;4990768;28;47119;-59
2021/12/15 09:15:09;;;;;;;;;16.25;13.50;;;;;9.65;71.03;102701.31;4973802;28;45522;-62
2021/12/15 09:17:35;;;;;;;;;12.00;11.00;;;;;9.45;70.66;102671.34;5011095;28;45810;-62
2021/12/15 09:20:09;;;;;;;;;15.50;14.25;;;;;9.60;71.54;102697.16;4975368;28;46163;-61
2021/12/15 09:22:35;;;;;;;;;18.00;16.60;;;;;9.40;71.19;102668.19;4977278;28;46738;-55
2021/12/15 09:25:00;;;;;;;;;18.75;17.75;;;;;9.56;71.34;102693.00;5010590;28;45712;-66
2021/12/15 09:27:26;;;;;;;;;16.75;16.25;;;;;9.58;71.08;102693.72;5011202;28;45759;-63
2021/12/15 09:29:51;;;;;;;;;13.00;12.50;;;;;9.67;70.55;102707.50;4990512;28;45711;-62
2021/12/15 09:32:17;;;;;;;;;17.50;12.50;;;;;9.71;71.21;102700.69;4991483;28;46517;-62
2021/12/15 09:34:42;;;;;;;;;12.00;10.25;;;;;9.56;70.85;102682.03;5010797;28;45720;-65
2021/12/15 09:37:08;;;;;;;;;22.50;16.00;;;;;9.67;71.63;102694.66;4989594;28;45537;-57
2021/12/15 09:39:35;;;;;;;;;27.75;16.75;;;;;9.77;71.78;102703.66;4973695;28;45795;-59
2021/12/15 09:42:04;;;;;;;;;21.80;14.40;;;;;9.85;71.38;102707.47;4972757;28;45645;-62
2021/12/15 09:44:30;;;;;;;;;26.40;14.20;;;;;9.73;70.15;102683.03;4992900;28;45536;-59
2021/12/15 09:47:15;;;;;;;;;22.25;17.00;;;;;9.85;70.80;102707.47;4962967;28;45428;-62
2021/12/15 10:03:18;;;;;;;;;18.00;17.00;;;;;9.86;71.31;102700.97;4980858;28;45565;-55
2021/12/15 10:06:45;;;;;;;;;18.00;17.40;;;;;9.88;71.15;102699.78;5009263;28;46002;-62
2021/12/15 10:19:41;;;;;;;;;22.60;19.20;;;;;9.98;69.78;102707.91;5007529;28;45879;-60
2021/12/15 10:22:28;;;;;;;;;23.60;20.00;;;;;9.88;70.43;102690.72;4986313;28;45761;-57
2021/12/15 10:25:04;;;;;;;;;19.60;18.00;;;;;9.85;71.00;102683.66;5004798;28;45877;-61
2021/12/15 10:27:50;;;;;;;;;22.40;18.40;;;;;10.03;70.95;102715.66;4989722;28;45565;-62
2021/12/15 10:30:38;;;;;;;;;18.80;15.20;;;;;9.70;70.94;102655.94;4990364;28;45744;-59
2021/12/15 10:33:08;;;;;;;;;18.80;17.20;;;;;10.05;70.14;102702.66;4994823;28;45463;-59
2021/12/15 10:35:37;;;;;;;;;17.60;16.60;;;;;10.00;70.49;102705.03;4995657;28;46882;-62
2021/12/15 10:38:21;;;;;;;;;20.40;18.00;;;;;10.10;70.88;102719.53;4995055;28;45400;-55
2021/12/15 10:40:53;;;;;;;;;24.00;18.20;;;;;10.12;70.55;102722.94;5013283;28;45386;-58
2021/12/15 10:43:20;;;;;;;;;19.60;17.20;;;;;10.15;70.21;102717.13;4991691;28;45519;-56
2021/12/15 10:45:53;;;;;;;;;18.80;16.20;;;;;10.21;70.06;102717.50;4992227;28;46977;-62
2021/12/15 10:48:34;;;;;;;;;23.20;19.40;;;;;10.23;70.11;102710.84;4993900;28;45814;-60
2021/12/15 10:51:01;;;;;;;;;21.80;19.60;;;;;10.21;70.70;102699.19;4981725;28;45900;-63
2021/12/15 10:53:35;;;;;;;;;21.60;17.80;;;;;10.27;69.43;102700.41;5010703;28;45517;-56
2021/12/15 10:56:02;;;;;;;;;21.60;20.20;;;;;10.27;69.77;102703.16;5006744;28;45996;-62
2021/12/15 10:58:37;;;;;;;;;22.60;19.20;;;;;10.25;70.19;102700.56;4994190;28;45517;-61
2021/12/15 11:01:06;;;;;;;;;17.60;17.40;;;;;10.11;69.52;102674.59;5007713;28;45511;-57
2021/12/15 11:03:36;;;;;;;;;23.40;19.00;;;;;10.26;69.68;102698.69;4991642;28;45648;-60
2021/12/15 11:06:18;;;;;;;;;18.20;15.20;;;;;9.89;69.43;102643.06;4992480;28;46397;-61
2021/12/15 11:08:43;;;;;;;;;21.40;19.80;;;;;9.97;69.78;102651.34;4990928;28;45777;-56
2021/12/15 11:11:09;;;;;;;;;18.50;18.50;;;;;10.26;70.30;102699.53;4960079;28;45793;-61
2021/12/15 11:13:34;;;;;;;;;26.00;21.25;;;;;10.29;69.95;102701.09;4974568;28;45897;-56
2021/12/15 11:15:59;;;;;;;;;18.00;16.75;;;;;9.98;69.79;102658.53;4990602;28;46024;-61
2021/12/15 11:18:28;;;;;;;;;14.00;12.50;;;;;9.98;70.16;102657.69;5006690;28;45427;-55
2021/12/15 11:20:58;;;;;;;;;16.60;15.60;;;;;9.72;70.09;102610.03;4974432;28;45565;-61
2021/12/15 11:23:24;;;;;;;;;26.20;23.60;;;;;10.19;70.13;102682.00;4989061;28;45408;-56
2021/12/15 11:26:07;;;;;;;;;25.60;19.00;;;;;10.04;70.11;102668.88;5006811;28;46533;-59
2021/12/15 11:28:39;;;;;;;;;22.20;18.60;;;;;10.25;70.54;102694.22;4991352;28;45713;-57
2021/12/15 11:31:06;;;;;;;;;19.80;18.00;;;;;10.25;70.38;102691.47;4992830;28;45810;-55
2021/12/15 11:33:45;;;;;;;;;32.60;26.00;;;;;10.20;70.99;102683.75;4991839;28;45505;-61
2021/12/15 11:36:15;;;;;;;;;21.80;21.80;;;;;10.29;70.33;102687.38;4974361;28;46301;-60
2021/12/15 11:38:42;;;;;;;;;24.80;19.20;;;;;10.12;70.65;102648.88;4992511;28;45827;-59
2021/12/15 11:41:19;;;;;;;;;24.20;20.60;;;;;10.35;70.08;102681.22;4991085;28;45889;-57
2021/12/15 11:43:52;;;;;;;;;22.40;19.80;;;;;10.22;70.53;102656.13;4991226;28;45565;-52
2021/12/15 11:46:19;;;;;;;;;23.20;20.80;;;;;10.28;70.26;102661.81;4991097;28;46170;-59
2021/12/15 11:49:06;;;;;;;;;24.80;20.00;;;;;10.36;69.95;102677.47;4974768;28;45352;-59
2021/12/15 11:51:53;;;;;;;;;28.00;21.40;;;;;10.37;69.92;102679.22;4992922;28;45465;-59
2021/12/15 11:54:25;;;;;;;;;20.40;19.60;;;;;10.38;70.64;102680.94;4985651;28;45701;-60
2021/12/15 11:56:57;;;;;;;;;26.80;18.00;;;;;10.38;69.72;102680.94;4972667;28;46280;-61
2021/12/15 11:59:25;;;;;;;;;14.80;14.40;;;;;10.38;70.82;102680.94;4974348;28;46898;-59
2021/12/15 12:01:59;;;;;;;;;9.60;9.40;;;;;10.39;70.04;102687.25;5008657;28;45404;-62
2021/12/15 12:04:32;;;;;;;;;11.40;9.40;;;;;10.35;69.52;102673.00;5012342;28;45348;-53
2021/12/15 12:07:18;;;;;;;;;9.80;9.40;;;;;10.40;69.60;102673.38;5011773;28;45442;-59
2021/12/15 12:09:46;;;;;;;;;11.80;8.20;;;;;10.35;69.47;102674.91;5005664;28;45707;-57
2021/12/15 12:12:12;;;;;;;;;13.00;13.00;;;;;10.39;69.73;102670.78;4970690;28;46037;-60
2021/12/15 12:14:43;;;;;;;;;14.00;9.50;;;;;10.25;69.67;102647.56;5010351;28;45708;-62
2021/12/15 12:17:13;;;;;;;;;11.80;10.00;;;;;10.42;70.32;102663.13;4994342;28;45859;-63
2021/12/15 12:20:10;;;;;;;;;11.40;10.20;;;;;10.38;69.07;102667.19;4993757;28;45483;-59
2021/12/15 12:22:35;;;;;;;;;14.20;11.00;;;;;10.35;69.58;102656.53;4988953;28;45591;-63
2021/12/15 12:25:07;;;;;;;;;13.25;9.75;;;;;10.39;69.69;102665.28;4972499;28;45855;-65
2021/12/15 12:27:32;;;;;;;;;12.80;12.40;;;;;10.41;69.65;102664.09;4990297;28;48004;-61
2021/12/15 12:30:00;;;;;;;;;14.25;10.00;;;;;10.39;69.61;102660.69;5026550;28;45543;-61
2021/12/15 12:32:25;;;;;;;;;13.00;10.80;;;;;10.40;69.38;102667.88;5011314;28;45499;-59
2021/12/15 12:34:52;;;;;;;;;16.50;13.00;;;;;10.39;69.92;102665.28;5004185;28;45466;-55
2021/12/15 12:37:18;;;;;;;;;14.60;12.00;;;;;10.37;69.55;102662.75;4999522;28;46725;-59